FQPB

Pemba Airport

Pemba / Porto Amelia, Mozambique
METAR FQPB 190500Z 03010KT 9999 FEW020 27/25 Q1011
Observed Flight Rules
Jan-19 @ 05:00 UTC (an hour ago) Visual Flight Rules
Wind Visibility Clouds
30° at 10 knots 10,000+ meters
  • Few at 2,000' AGL
Temperatures Readings
Current 27°C / 81°F
Dewpoint 25°C / 77°F
Humidity 89%
Altimeter 29.85" Hg
Pressure 1010.92 hPa
Elevation 50
METAR FQPB 190500Z 03010KT 9999 FEW020 27/25 Q1011
Observed Flight Rules
Jan-19 @ 05:00 UTC
(an hour ago)
VFR
Wind Visibility
30° at 10 knots 10,000+ meters
Clouds
  • Few at 2,000' AGL
Temperature Dewpoint
27°C / 81°F 25°C / 77°F
Humidity Altimeter Pressure
89% 29.85" Hg 1010.92 hPa